createdAt,value
2023-01-10T00:02:13.853Z,5.03
2023-01-10T00:04:42.622Z,3.10
2023-01-10T00:07:10.989Z,3.88
2023-01-10T00:09:39.350Z,3.13
2023-01-10T00:12:25.749Z,2.33
2023-01-10T00:14:55.533Z,3.03
2023-01-10T00:17:23.858Z,4.35
2023-01-10T00:19:52.451Z,2.53
2023-01-10T00:22:25.191Z,2.50
2023-01-10T00:24:53.804Z,2.83
2023-01-10T00:27:23.611Z,2.97
2023-01-10T00:29:53.796Z,2.88
2023-01-10T00:32:23.718Z,3.70
2023-01-10T00:34:53.786Z,3.15
2023-01-10T00:37:23.302Z,2.65
2023-01-10T00:39:51.631Z,4.10
2023-01-10T00:42:40.837Z,2.15
2023-01-10T00:45:11.794Z,3.33
2023-01-10T00:47:41.361Z,2.63
2023-01-10T00:50:12.641Z,2.30
2023-01-10T00:52:41.139Z,4.60
2023-01-10T00:55:10.138Z,5.72
2023-01-10T00:57:40.971Z,6.47
2023-01-10T01:00:10.245Z,5.30
2023-01-10T01:02:38.861Z,3.05
2023-01-10T01:05:10.283Z,3.22
2023-01-10T01:07:39.655Z,3.97
2023-01-10T01:10:27.687Z,3.10
2023-01-10T01:12:56.847Z,4.22
2023-01-10T01:15:26.002Z,3.53
2023-01-10T01:17:56.588Z,6.32
2023-01-10T01:20:26.192Z,5.82
2023-01-10T01:22:54.589Z,5.78
2023-01-10T01:25:23.233Z,3.45
2023-01-10T01:27:51.572Z,7.05
2023-01-10T01:30:20.003Z,4.72
2023-01-10T01:32:48.531Z,4.15
2023-01-10T01:35:17.701Z,5.18
2023-01-10T01:37:47.421Z,4.57
2023-01-10T01:40:16.895Z,6.00
2023-01-10T01:42:46.413Z,5.93
2023-01-10T01:45:37.985Z,7.88
2023-01-10T01:48:16.086Z,6.50
2023-01-10T01:50:49.566Z,5.50
2023-01-10T01:53:25.705Z,5.45
2023-01-10T01:55:55.754Z,5.65
2023-01-10T01:58:32.043Z,7.00
2023-01-10T02:01:00.679Z,4.97
2023-01-10T02:03:30.070Z,6.82
2023-01-10T02:05:59.432Z,5.70
2023-01-10T02:08:29.123Z,7.05
2023-01-10T02:11:04.108Z,11.60
2023-01-10T02:13:34.650Z,5.25
2023-01-10T02:16:03.072Z,5.70
2023-01-10T02:18:31.791Z,5.18
2023-01-10T02:21:24.851Z,5.55
2023-01-10T02:24:32.488Z,5.45
2023-01-10T02:27:12.527Z,4.03
2023-01-10T02:30:08.513Z,6.75
2023-01-10T02:32:56.642Z,5.82
2023-01-10T02:35:43.984Z,5.35
2023-01-10T02:38:23.649Z,5.78
2023-01-10T02:41:01.627Z,9.98
2023-01-10T02:43:35.599Z,6.82
2023-01-10T02:46:08.605Z,6.28
2023-01-10T02:48:38.310Z,6.90
2023-01-10T02:51:17.338Z,4.75
2023-01-10T02:53:49.381Z,7.53
2023-01-10T02:56:51.423Z,9.15
2023-01-10T02:59:46.507Z,8.57
2023-01-10T03:02:26.963Z,5.43
2023-01-10T03:05:04.306Z,10.90
2023-01-10T03:07:38.324Z,5.22
2023-01-10T03:10:15.097Z,6.28
2023-01-10T03:12:50.206Z,5.50
2023-01-10T03:15:21.038Z,9.45
2023-01-10T03:17:54.671Z,5.43
2023-01-10T03:20:25.256Z,6.70
2023-01-10T03:22:56.106Z,9.57
2023-01-10T03:25:29.427Z,8.93
2023-01-10T03:28:06.557Z,5.13
2023-01-10T03:30:42.018Z,5.78
2023-01-10T03:33:12.049Z,9.10
2023-01-10T03:35:52.015Z,8.82
2023-01-10T03:38:27.806Z,4.93
2023-01-10T03:41:01.181Z,7.00
2023-01-10T03:43:56.245Z,5.55
2023-01-10T03:46:31.540Z,7.60
2023-01-10T03:49:01.365Z,6.72
2023-01-10T03:51:32.138Z,4.95
2023-01-10T03:54:02.710Z,7.70
2023-01-10T03:56:31.271Z,6.35
2023-01-10T03:59:00.216Z,14.63
2023-01-10T04:01:28.927Z,7.35
2023-01-10T04:03:57.455Z,7.20
2023-01-10T04:06:25.843Z,7.47
2023-01-10T04:08:55.736Z,11.70
2023-01-10T04:11:24.058Z,8.60
2023-01-10T04:13:52.374Z,7.00
2023-01-10T04:16:20.996Z,6.35
2023-01-10T04:18:49.339Z,6.55
2023-01-10T04:21:17.636Z,8.75
2023-01-10T04:23:46.310Z,10.50
2023-01-10T04:26:15.991Z,6.70
2023-01-10T04:28:44.350Z,4.35
2023-01-10T04:31:12.893Z,5.65
2023-01-10T04:33:41.296Z,6.43
2023-01-10T04:36:09.974Z,5.03
2023-01-10T04:38:38.553Z,12.68
2023-01-10T04:41:07.132Z,4.47
2023-01-10T04:43:36.929Z,7.10
2023-01-10T04:46:05.659Z,4.80
2023-01-10T04:48:37.123Z,9.68
2023-01-10T04:51:05.898Z,8.93
2023-01-10T04:53:34.352Z,6.97
2023-01-10T04:56:07.044Z,6.43
2023-01-10T04:58:38.287Z,9.02
2023-01-10T05:01:11.385Z,9.15
2023-01-10T05:03:40.091Z,7.75
2023-01-10T05:06:08.875Z,5.15
2023-01-10T05:08:37.613Z,5.40
2023-01-10T05:11:06.031Z,6.15
2023-01-10T05:13:35.906Z,7.55
2023-01-10T05:16:04.566Z,6.22
2023-01-10T05:18:33.489Z,6.50
2023-01-10T05:21:02.264Z,10.18
2023-01-10T05:23:30.885Z,11.70
2023-01-10T05:25:59.489Z,8.98
2023-01-10T05:28:27.848Z,5.88
2023-01-10T05:30:57.720Z,6.35
2023-01-10T05:33:26.119Z,5.47
2023-01-10T05:35:54.585Z,7.15
2023-01-10T05:38:22.955Z,7.25
2023-01-10T05:40:58.947Z,5.47
2023-01-10T05:43:28.405Z,7.25
2023-01-10T05:45:58.299Z,6.93
2023-01-10T05:48:26.773Z,10.48
2023-01-10T05:50:55.401Z,9.90
2023-01-10T05:53:23.703Z,6.60
2023-01-10T05:55:56.827Z,10.50
2023-01-10T05:58:25.989Z,8.30
2023-01-10T06:00:57.653Z,5.75
2023-01-10T06:03:27.262Z,7.28
2023-01-10T06:05:56.087Z,6.15
2023-01-10T06:08:25.378Z,13.50
2023-01-10T06:10:53.911Z,8.65
2023-01-10T06:13:22.373Z,7.32
2023-01-10T06:15:51.484Z,9.43
2023-01-10T06:18:21.425Z,6.72
2023-01-10T06:20:49.831Z,7.88
2023-01-10T06:23:18.164Z,8.63
2023-01-10T06:25:46.897Z,8.40
2023-01-10T06:28:15.603Z,8.80
2023-01-10T06:30:44.419Z,8.07
2023-01-10T06:33:13.584Z,9.27
2023-01-10T06:35:43.725Z,9.07
2023-01-10T06:38:12.056Z,7.78
2023-01-10T06:40:40.401Z,6.47
2023-01-10T06:43:08.995Z,9.30
2023-01-10T06:45:37.422Z,9.90
2023-01-10T06:48:06.259Z,7.97
2023-01-10T06:50:34.788Z,9.20
2023-01-10T06:53:05.543Z,9.77
2023-01-10T06:55:34.070Z,9.77
2023-01-10T06:58:04.543Z,14.60
2023-01-10T07:00:33.564Z,10.48
2023-01-10T07:03:02.928Z,11.48
2023-01-10T07:05:31.770Z,7.57
2023-01-10T07:08:01.360Z,8.15
2023-01-10T07:10:31.277Z,7.78
2023-01-10T07:12:59.751Z,14.40
2023-01-10T07:15:30.110Z,8.02
2023-01-10T07:17:59.003Z,11.18
2023-01-10T07:20:28.700Z,10.63
2023-01-10T07:22:59.173Z,6.75
2023-01-10T07:25:29.037Z,11.07
2023-01-10T07:27:59.054Z,7.72
2023-01-10T07:30:27.444Z,5.60
2023-01-10T07:32:56.537Z,6.15
2023-01-10T07:35:25.956Z,8.65
2023-01-10T07:37:54.352Z,10.15
2023-01-10T07:40:22.699Z,12.90
2023-01-10T07:42:51.112Z,10.30
2023-01-10T07:45:20.884Z,10.65
2023-01-10T07:47:49.148Z,12.25
2023-01-10T07:50:18.356Z,7.70
2023-01-10T07:52:47.160Z,8.55
2023-01-10T07:55:15.616Z,8.23
2023-01-10T07:57:44.129Z,10.32
2023-01-10T08:00:13.330Z,12.80
2023-01-10T08:02:43.177Z,14.30
2023-01-10T08:05:11.808Z,8.07
2023-01-10T08:07:40.078Z,8.98
2023-01-10T08:10:09.592Z,10.80
2023-01-10T08:12:38.007Z,9.40
2023-01-10T08:15:08.325Z,9.48
2023-01-10T08:17:37.460Z,7.80
2023-01-10T08:20:08.670Z,8.88
2023-01-10T08:22:37.345Z,5.85
2023-01-10T08:25:06.359Z,9.55
2023-01-10T08:27:35.052Z,10.38
2023-01-10T08:30:03.440Z,11.90
2023-01-10T08:32:31.843Z,10.18
2023-01-10T08:35:00.423Z,14.48
2023-01-10T08:37:30.171Z,9.30
2023-01-10T08:39:58.521Z,14.75
2023-01-10T08:42:27.022Z,9.45
2023-01-10T08:44:55.493Z,9.63
2023-01-10T08:47:23.818Z,13.88
2023-01-10T08:49:52.274Z,9.75
2023-01-10T08:52:20.855Z,6.30
2023-01-10T08:54:50.992Z,11.10
2023-01-10T08:57:19.443Z,9.30
2023-01-10T08:59:47.715Z,8.65
2023-01-10T09:02:16.214Z,13.50
2023-01-10T09:04:44.723Z,10.45
2023-01-10T09:07:13.147Z,16.63
2023-01-10T09:09:41.408Z,6.00
2023-01-10T09:12:25.363Z,10.73
2023-01-10T09:14:53.730Z,11.60
2023-01-10T09:17:22.171Z,12.45
2023-01-10T09:19:50.778Z,9.13
2023-01-10T09:22:19.404Z,8.50
2023-01-10T09:24:48.320Z,10.55
2023-01-10T09:27:18.236Z,12.77
2023-01-10T09:29:46.568Z,12.57
2023-01-10T09:32:14.858Z,12.52
2023-01-10T09:34:43.376Z,11.88
2023-01-10T09:37:11.984Z,9.73
2023-01-10T09:39:40.356Z,10.32
2023-01-10T09:42:22.582Z,11.13
2023-01-10T09:45:01.263Z,7.18
2023-01-10T09:47:39.948Z,13.85
2023-01-10T09:50:17.783Z,11.27
2023-01-10T09:52:51.487Z,7.00
2023-01-10T09:55:26.404Z,10.00
2023-01-10T09:57:59.268Z,12.07
2023-01-10T10:00:38.725Z,10.85
2023-01-10T10:03:20.297Z,10.45
2023-01-10T10:05:50.526Z,7.43
2023-01-10T10:08:21.402Z,9.65
2023-01-10T10:11:01.174Z,10.27
2023-01-10T10:13:46.654Z,12.77
2023-01-10T10:16:26.178Z,10.82
2023-01-10T10:19:07.071Z,7.93
2023-01-10T10:21:45.178Z,11.50
2023-01-10T10:24:25.545Z,7.97
2023-01-10T10:26:59.844Z,12.77
2023-01-10T10:30:00.372Z,10.65
2023-01-10T10:32:50.929Z,12.73
2023-01-10T10:35:27.149Z,10.93
2023-01-10T10:37:59.481Z,8.57
2023-01-10T10:40:32.962Z,12.70
2023-01-10T10:43:14.460Z,10.48
2023-01-10T10:45:48.558Z,14.55
2023-01-10T10:48:23.133Z,12.00
2023-01-10T10:51:00.123Z,7.15
2023-01-10T10:53:29.020Z,8.13
2023-01-10T10:55:58.177Z,10.93
2023-01-10T10:58:30.641Z,8.77
2023-01-10T11:01:01.695Z,12.25
2023-01-10T11:03:42.683Z,7.97
2023-01-10T11:06:11.884Z,14.10
2023-01-10T11:08:42.844Z,9.52
2023-01-10T11:11:20.668Z,9.75
2023-01-10T11:13:54.634Z,10.50
2023-01-10T11:16:28.737Z,10.75
2023-01-10T11:19:19.323Z,7.63
2023-01-10T11:21:51.840Z,8.63
2023-01-10T11:24:24.682Z,11.57
2023-01-10T11:26:53.939Z,10.55
2023-01-10T11:29:26.994Z,12.88
2023-01-10T11:31:58.514Z,12.20
2023-01-10T11:34:30.898Z,8.90
2023-01-10T11:37:01.853Z,9.18
2023-01-10T11:39:31.655Z,9.40
2023-01-10T11:42:29.663Z,14.38
2023-01-10T11:45:26.722Z,8.15
2023-01-10T11:48:00.029Z,8.45
2023-01-10T11:50:30.632Z,8.88
2023-01-10T11:52:59.494Z,9.18
2023-01-10T11:55:30.001Z,10.25
2023-01-10T11:58:03.613Z,10.23
2023-01-10T12:00:36.001Z,8.43
2023-01-10T12:03:17.829Z,6.10
2023-01-10T12:05:56.143Z,10.52
2023-01-10T12:08:27.956Z,9.30
2023-01-10T12:11:08.208Z,6.97
2023-01-10T12:13:47.415Z,8.70
2023-01-10T12:16:17.373Z,7.95
2023-01-10T12:18:47.738Z,7.97
2023-01-10T12:21:21.051Z,8.07
2023-01-10T12:23:51.869Z,14.25
2023-01-10T12:26:20.547Z,6.35
2023-01-10T12:28:53.599Z,9.07
2023-01-10T12:31:24.850Z,9.43
2023-01-10T12:33:59.984Z,8.15
2023-01-10T12:36:37.507Z,9.27
2023-01-10T12:39:16.411Z,9.60
2023-01-10T12:42:13.835Z,12.10
2023-01-10T12:44:43.902Z,10.20
2023-01-10T12:47:23.675Z,7.95
2023-01-10T12:50:00.467Z,12.73
2023-01-10T12:52:35.110Z,9.98
2023-01-10T12:55:04.210Z,7.65
2023-01-10T12:57:38.209Z,6.80
2023-01-10T13:00:11.967Z,9.80
2023-01-10T13:02:44.071Z,8.85
2023-01-10T13:05:21.651Z,7.03
2023-01-10T13:07:52.099Z,10.38
2023-01-10T13:10:23.716Z,9.48
2023-01-10T13:12:58.458Z,12.60
2023-01-10T13:15:31.377Z,12.15
2023-01-10T13:18:03.576Z,10.15
2023-01-10T13:20:42.484Z,12.30
2023-01-10T13:23:23.024Z,12.65
2023-01-10T13:26:04.668Z,8.90
2023-01-10T13:28:35.600Z,10.73
2023-01-10T13:31:07.145Z,7.63
2023-01-10T13:33:49.078Z,10.18
2023-01-10T13:36:22.578Z,12.70
2023-01-10T13:38:54.003Z,12.70
2023-01-10T13:41:40.465Z,8.50
2023-01-10T13:44:11.866Z,10.05
2023-01-10T13:46:45.729Z,15.00
2023-01-10T13:49:42.347Z,10.95
2023-01-10T13:52:36.411Z,13.50
2023-01-10T13:55:22.216Z,9.40
2023-01-10T13:57:53.344Z,11.18
2023-01-10T14:00:43.389Z,15.65
2023-01-10T14:03:44.227Z,18.65
2023-01-10T14:06:17.412Z,10.30
2023-01-10T14:08:54.094Z,10.30
2023-01-10T14:11:24.671Z,11.88
2023-01-10T14:13:56.087Z,12.00
2023-01-10T14:16:34.080Z,13.05
2023-01-10T14:19:05.770Z,10.10
2023-01-10T14:21:44.771Z,16.10
2023-01-10T14:24:26.466Z,13.93
2023-01-10T14:26:57.574Z,15.85
2023-01-10T14:29:30.656Z,10.15
2023-01-10T14:32:01.402Z,10.85
2023-01-10T14:34:32.140Z,12.15
2023-01-10T14:37:05.086Z,12.35
2023-01-10T14:39:36.539Z,16.17
2023-01-10T14:42:09.003Z,15.00
2023-01-10T14:44:45.834Z,11.55
2023-01-10T14:47:29.665Z,10.23
2023-01-10T14:50:00.245Z,15.90
2023-01-10T14:52:29.908Z,12.98
2023-01-10T14:55:12.780Z,16.10
2023-01-10T14:57:41.333Z,13.90
2023-01-10T15:00:17.515Z,15.57
2023-01-10T15:02:47.706Z,10.45
2023-01-10T15:05:21.555Z,11.98
2023-01-10T15:07:51.398Z,14.65
2023-01-10T15:10:26.918Z,11.15
2023-01-10T15:12:58.061Z,19.92
2023-01-10T15:15:32.466Z,16.02
2023-01-10T15:18:03.517Z,13.95
2023-01-10T15:20:32.023Z,17.50
2023-01-10T15:23:02.373Z,12.57
2023-01-10T15:25:38.173Z,13.82
2023-01-10T15:28:15.260Z,18.05
2023-01-10T15:30:44.866Z,14.05
2023-01-10T15:33:16.732Z,17.67
2023-01-10T15:36:00.483Z,14.63
2023-01-10T15:38:30.673Z,17.17
2023-01-10T15:41:03.528Z,13.90
2023-01-10T15:43:33.819Z,12.48
2023-01-10T15:46:06.484Z,10.00
2023-01-10T15:48:36.450Z,11.25
2023-01-10T15:51:13.888Z,15.63
2023-01-10T15:53:57.400Z,15.70
2023-01-10T15:56:29.813Z,18.92
2023-01-10T15:59:03.229Z,19.13
2023-01-10T16:01:34.099Z,18.52
2023-01-10T19:21:05.874Z,10.98
2023-01-10T19:27:05.752Z,13.45
2023-01-10T19:30:03.366Z,6.22
2023-01-10T20:06:25.296Z,6.05
2023-01-10T20:09:29.683Z,10.73
2023-01-10T20:15:37.771Z,8.27
2023-01-10T20:18:10.893Z,12.00
2023-01-10T20:24:40.517Z,7.03
2023-01-10T20:27:21.973Z,9.95
2023-01-10T21:08:05.132Z,12.40
2023-01-10T21:22:15.467Z,12.10
2023-01-10T21:25:58.149Z,11.95
